createdAt,value
2022-12-25T00:02:05.615Z,97832.74
2022-12-25T00:05:08.907Z,97842.11
2022-12-25T00:08:11.703Z,97847.84
2022-12-25T00:11:17.194Z,97851.01
2022-12-25T00:14:20.229Z,97859.85
2022-12-25T00:17:23.137Z,97859.71
2022-12-25T00:20:25.949Z,97853.45
2022-12-25T00:23:29.348Z,97853.83
2022-12-25T00:26:32.493Z,97853.93
2022-12-25T00:29:35.519Z,97858.22
2022-12-25T00:32:38.555Z,97868.09
2022-12-25T00:35:41.515Z,97876.77
2022-12-25T00:38:46.686Z,97884.43
2022-12-25T00:42:08.242Z,97885.42
2022-12-25T00:45:11.058Z,97890.21
2022-12-25T00:48:13.883Z,97896.83
2022-12-25T00:51:16.699Z,97895.59
2022-12-25T00:54:19.921Z,97904.77
2022-12-25T00:57:23.012Z,97907.77
2022-12-25T01:00:25.872Z,97914.36
2022-12-25T01:03:28.827Z,97916.48
2022-12-25T01:06:32.503Z,97916.77
2022-12-25T01:09:54.066Z,97924.05
2022-12-25T01:12:57.013Z,97933.78
2022-12-25T01:15:59.925Z,97931.94
2022-12-25T01:19:03.787Z,97933.56
2022-12-25T01:22:06.884Z,97932.54
2022-12-25T01:25:10.767Z,97933.31
2022-12-25T01:28:13.850Z,97939.23
2022-12-25T01:31:18.912Z,97936.59
2022-12-25T01:34:21.815Z,97935.59
2022-12-25T01:37:25.603Z,97935.23
2022-12-25T01:40:28.483Z,97931.67
2022-12-25T01:43:33.732Z,97938.19
2022-12-25T01:46:36.784Z,97945.79
2022-12-25T01:49:42.556Z,97954.34
2022-12-25T01:52:46.579Z,97959.38
2022-12-25T01:55:54.622Z,97959.70
2022-12-25T01:58:58.623Z,97961.41
2022-12-25T02:02:01.877Z,97964.20
2022-12-25T02:05:13.992Z,97960.30
2022-12-25T02:08:20.616Z,97959.45
2022-12-25T02:11:42.055Z,97954.77
2022-12-25T02:14:46.094Z,97954.92
2022-12-25T02:18:03.012Z,97957.58
2022-12-25T02:22:00.456Z,97958.93
2022-12-25T02:25:38.721Z,97974.36
2022-12-25T02:28:47.670Z,97977.36
2022-12-25T02:31:53.622Z,97975.58
2022-12-25T02:35:03.176Z,97981.02
2022-12-25T02:38:20.352Z,97977.70
2022-12-25T02:41:23.338Z,97975.27
2022-12-25T02:45:01.279Z,97965.47
2022-12-25T02:48:24.033Z,97957.62
2022-12-25T02:51:50.119Z,97953.80
2022-12-25T02:55:18.550Z,97959.63
2022-12-25T02:58:43.126Z,97971.38
2022-12-25T03:02:05.331Z,97975.48
2022-12-25T03:05:31.458Z,97978.52
2022-12-25T03:08:41.606Z,97970.20
2022-12-25T03:11:52.484Z,97964.11
2022-12-25T03:15:13.988Z,97963.75
2022-12-25T03:18:20.052Z,97965.98
2022-12-25T03:21:41.654Z,97966.89
2022-12-25T03:25:03.149Z,97970.64
2022-12-25T03:28:06.627Z,97969.16
2022-12-25T03:31:30.494Z,97962.57
2022-12-25T03:35:12.526Z,97975.98
2022-12-25T03:38:48.465Z,97973.19
2022-12-25T03:42:17.046Z,97975.62
2022-12-25T03:45:47.699Z,97977.34
2022-12-25T03:49:17.252Z,97976.14
2022-12-25T03:52:39.985Z,97979.77
2022-12-25T03:56:02.582Z,97980.20
2022-12-25T03:59:24.462Z,97984.23
2022-12-25T04:02:46.509Z,97984.36
2022-12-25T04:06:25.215Z,97985.55
2022-12-25T04:09:47.003Z,97995.66
2022-12-25T04:13:08.364Z,98006.47
2022-12-25T04:16:30.003Z,98015.02
2022-12-25T04:19:58.710Z,98017.89
2022-12-25T04:23:20.364Z,98013.93
2022-12-25T04:26:42.045Z,98018.02
2022-12-25T04:30:11.038Z,98022.36
2022-12-25T04:33:32.614Z,98028.67
2022-12-25T04:36:35.423Z,98027.90
2022-12-25T04:39:38.238Z,98031.06
2022-12-25T04:42:42.318Z,98031.98
2022-12-25T04:45:55.830Z,98023.23
2022-12-25T04:48:58.656Z,98024.83
2022-12-25T04:52:01.462Z,98024.50
2022-12-25T04:55:05.305Z,98032.71
2022-12-25T04:58:08.471Z,98029.52
2022-12-25T05:01:12.660Z,98033.81
2022-12-25T05:04:15.453Z,98036.52
2022-12-25T05:07:18.261Z,98040.51
2022-12-25T05:10:21.160Z,98046.61
2022-12-25T05:13:24.939Z,98055.22
2022-12-25T05:16:28.013Z,98051.52
2022-12-25T05:19:31.857Z,98053.86
2022-12-25T05:22:34.777Z,98058.98
2022-12-25T05:25:41.126Z,98054.07
2022-12-25T05:28:43.930Z,98046.16
2022-12-25T05:31:46.881Z,98052.19
2022-12-25T05:34:49.749Z,98057.23
2022-12-25T05:37:52.589Z,98053.67
2022-12-25T05:40:55.435Z,98050.16
2022-12-25T05:43:58.259Z,98045.87
2022-12-25T05:47:01.118Z,98051.49
2022-12-25T05:50:05.135Z,98060.36
2022-12-25T05:53:09.612Z,98058.77
2022-12-25T05:56:12.642Z,98064.20
2022-12-25T05:59:15.487Z,98071.33
2022-12-25T06:02:18.417Z,98077.68
2022-12-25T06:05:21.409Z,98081.33
2022-12-25T06:08:24.309Z,98087.52
2022-12-25T06:11:27.264Z,98094.58
2022-12-25T06:14:30.130Z,98097.40
2022-12-25T06:17:33.089Z,98099.04
2022-12-25T06:20:36.029Z,98108.40
2022-12-25T06:23:39.371Z,98116.88
2022-12-25T06:26:42.596Z,98117.56
2022-12-25T06:29:45.580Z,98125.64
2022-12-25T06:32:48.697Z,98124.23
2022-12-25T06:35:51.522Z,98122.14
2022-12-25T06:38:54.524Z,98116.23
2022-12-25T06:41:57.541Z,98120.79
2022-12-25T06:45:00.383Z,98121.45
2022-12-25T06:48:03.412Z,98123.88
2022-12-25T06:51:07.349Z,98132.42
2022-12-25T06:54:11.836Z,98139.99
2022-12-25T06:57:14.716Z,98141.23
2022-12-25T07:00:17.707Z,98141.48
2022-12-25T07:03:22.278Z,98144.14
2022-12-25T07:06:25.729Z,98148.96
2022-12-25T07:09:28.603Z,98161.58
2022-12-25T07:12:31.416Z,98164.66
2022-12-25T07:15:34.303Z,98168.27
2022-12-25T07:18:37.447Z,98167.94
2022-12-25T07:21:40.347Z,98173.38
2022-12-25T07:24:43.573Z,98179.19
2022-12-25T07:27:46.535Z,98174.75
2022-12-25T07:30:49.695Z,98184.79
2022-12-25T07:33:55.839Z,98185.70
2022-12-25T07:36:58.919Z,98184.49
2022-12-25T07:40:02.322Z,98185.38
2022-12-25T07:43:05.676Z,98189.48
2022-12-25T07:46:09.726Z,98193.16
2022-12-25T07:49:12.922Z,98197.07
2022-12-25T07:52:16.068Z,98197.30
2022-12-25T07:55:19.107Z,98195.86
2022-12-25T07:58:23.595Z,98196.04
2022-12-25T08:01:28.111Z,98196.41
2022-12-25T08:04:31.776Z,98191.48
2022-12-25T08:07:38.792Z,98194.58
2022-12-25T08:10:46.651Z,98194.05
2022-12-25T08:13:50.440Z,98198.23
2022-12-25T08:16:53.926Z,98200.98
2022-12-25T08:19:58.006Z,98195.73
2022-12-25T08:23:02.244Z,98194.89
2022-12-25T08:26:09.236Z,98196.48
2022-12-25T08:29:13.577Z,98191.02
2022-12-25T08:32:18.936Z,98191.85
2022-12-25T08:35:28.275Z,98190.72
2022-12-25T08:38:34.229Z,98188.52
2022-12-25T08:41:39.112Z,98193.67
2022-12-25T08:44:48.801Z,98198.30
2022-12-25T08:47:57.800Z,98202.43
2022-12-25T08:51:03.780Z,98208.18
2022-12-25T08:54:06.708Z,98212.21
2022-12-25T08:57:09.930Z,98216.55
2022-12-25T09:00:13.367Z,98228.36
2022-12-25T09:03:16.204Z,98223.19
2022-12-25T09:06:19.050Z,98220.63
2022-12-25T09:09:27.370Z,98224.73
2022-12-25T09:12:30.178Z,98226.21
2022-12-25T09:15:32.994Z,98227.93
2022-12-25T09:18:36.036Z,98222.96
2022-12-25T09:21:38.869Z,98212.33
2022-12-25T09:24:43.825Z,98216.21
2022-12-25T09:27:46.740Z,98225.21
2022-12-25T09:30:53.234Z,98224.89
2022-12-25T09:33:58.126Z,98222.15
2022-12-25T09:37:02.003Z,98220.70
2022-12-25T09:40:05.564Z,98223.92
2022-12-25T09:43:16.789Z,98227.44
2022-12-25T09:46:23.886Z,98228.53
2022-12-25T09:49:47.260Z,98224.77
2022-12-25T09:53:17.307Z,98230.41
2022-12-25T09:56:27.101Z,98230.64
2022-12-25T09:59:30.757Z,98232.11
2022-12-25T10:02:48.316Z,98232.30
2022-12-25T10:06:13.370Z,98232.20
2022-12-25T10:09:27.517Z,98237.50
2022-12-25T10:12:37.096Z,98246.81
2022-12-25T10:16:03.193Z,98243.66
2022-12-25T10:19:18.129Z,98240.08
2022-12-25T10:22:38.030Z,98238.39
2022-12-25T10:25:41.968Z,98235.46
2022-12-25T10:28:47.889Z,98234.44
2022-12-25T10:31:55.459Z,98232.63
2022-12-25T10:34:58.368Z,98233.34
2022-12-25T10:38:19.072Z,98234.79
2022-12-25T10:41:59.805Z,98230.33
2022-12-25T10:45:08.246Z,98218.02
2022-12-25T10:48:25.933Z,98214.67
2022-12-25T10:51:31.820Z,98213.89
2022-12-25T10:54:36.113Z,98213.18
2022-12-25T10:57:46.142Z,98215.90
2022-12-25T11:00:54.567Z,98216.08
2022-12-25T11:03:57.623Z,98214.95
2022-12-25T11:07:18.627Z,98215.86
2022-12-25T11:10:31.190Z,98215.00
2022-12-25T11:13:47.777Z,98198.18
2022-12-25T11:16:50.654Z,98186.70
2022-12-25T11:19:59.424Z,98187.14
2022-12-25T11:23:02.229Z,98180.57
2022-12-25T11:26:07.879Z,98185.91
2022-12-25T11:29:35.323Z,98182.73
2022-12-25T11:32:43.592Z,98172.31
2022-12-25T11:35:53.020Z,98168.41
2022-12-25T11:38:57.394Z,98168.32
2022-12-25T11:42:21.339Z,98164.17
2022-12-25T11:45:27.039Z,98163.26
2022-12-25T11:48:34.207Z,98154.58
2022-12-25T11:51:42.306Z,98153.29
2022-12-25T11:54:55.034Z,98153.50
2022-12-25T11:58:04.890Z,98147.91
2022-12-25T12:01:27.707Z,98149.98
2022-12-25T12:04:42.693Z,98147.47
2022-12-25T12:08:06.320Z,98146.74
2022-12-25T12:11:20.703Z,98145.05
2022-12-25T12:14:23.522Z,98141.82
2022-12-25T12:17:26.680Z,98139.94
2022-12-25T12:20:35.592Z,98134.00
2022-12-25T12:24:10.788Z,98134.05
2022-12-25T12:27:32.238Z,98137.56
2022-12-25T12:30:35.721Z,98142.48
2022-12-25T12:33:44.215Z,98146.06
2022-12-25T12:36:47.063Z,98137.90
2022-12-25T12:39:54.225Z,98123.58
2022-12-25T12:42:57.090Z,98114.85
2022-12-25T12:46:16.192Z,98118.84
2022-12-25T12:49:28.491Z,98114.32
2022-12-25T12:52:38.995Z,98120.98
2022-12-25T12:55:42.039Z,98125.37
2022-12-25T12:58:51.124Z,98133.31
2022-12-25T13:02:11.135Z,98139.36
2022-12-25T13:05:41.378Z,98147.08
2022-12-25T13:09:05.125Z,98147.23
2022-12-25T13:12:08.917Z,98147.73
2022-12-25T13:15:14.043Z,98149.83
2022-12-25T13:18:17.558Z,98154.30
2022-12-25T13:21:26.917Z,98156.55
2022-12-25T13:24:32.602Z,98160.02
2022-12-25T13:27:35.557Z,98156.27
2022-12-25T13:30:38.435Z,98159.23
2022-12-25T13:33:45.662Z,98159.23
2022-12-25T13:36:48.672Z,98161.15
2022-12-25T13:39:55.159Z,98153.96
2022-12-25T13:43:01.920Z,98138.34
2022-12-25T13:46:05.545Z,98142.23
2022-12-25T13:49:17.949Z,98142.70
2022-12-25T13:52:28.656Z,98144.54
2022-12-25T13:55:33.851Z,98147.75
2022-12-25T13:58:37.465Z,98148.19
2022-12-25T14:01:45.097Z,98147.59
2022-12-25T14:04:48.123Z,98141.11
2022-12-25T14:07:53.546Z,98133.59
2022-12-25T14:10:57.516Z,98135.67
2022-12-25T14:14:04.254Z,98144.95
2022-12-25T14:17:07.243Z,98149.38
2022-12-25T14:20:26.209Z,98148.95
2022-12-25T14:23:43.393Z,98143.39
2022-12-25T14:26:46.295Z,98140.93
2022-12-25T14:29:51.899Z,98126.93
2022-12-25T14:32:56.007Z,98112.24
2022-12-25T14:35:59.276Z,98110.95
2022-12-25T14:39:05.840Z,98112.52
2022-12-25T14:42:23.859Z,98114.52
2022-12-25T14:45:35.002Z,98094.21
2022-12-25T14:48:37.782Z,98083.61
2022-12-25T14:51:43.142Z,98083.60
2022-12-25T14:54:49.134Z,98084.73
2022-12-25T14:57:57.176Z,98105.63
2022-12-25T15:01:02.932Z,98130.84
2022-12-25T15:04:13.358Z,98140.35
2022-12-25T15:07:30.846Z,98126.30
2022-12-25T15:13:57.774Z,98111.73
2022-12-25T15:17:01.695Z,98104.65
2022-12-25T15:20:05.583Z,98099.09
2022-12-25T15:23:20.083Z,98092.78
2022-12-25T15:26:24.293Z,98082.52
2022-12-25T15:30:00.160Z,98078.61
2022-12-25T15:32:50.328Z,98080.75
2022-12-25T15:35:53.175Z,98079.45
2022-12-25T15:38:56.843Z,98076.95
2022-12-25T15:42:12.762Z,98074.70
2022-12-25T15:45:25.717Z,98076.02
2022-12-25T15:48:28.809Z,98069.50
2022-12-25T15:51:32.026Z,98064.83
2022-12-25T15:54:34.915Z,98061.55
2022-12-25T15:57:41.081Z,98054.08
2022-12-25T16:00:51.656Z,98053.11
2022-12-25T16:03:54.670Z,98057.56
2022-12-25T16:06:58.159Z,98058.17
2022-12-25T16:10:01.067Z,98047.15
2022-12-25T16:13:04.161Z,98046.35
2022-12-25T16:16:07.424Z,98050.08
2022-12-25T16:19:10.285Z,98053.34
2022-12-25T16:22:18.412Z,98054.91
2022-12-25T16:25:21.360Z,98051.30
2022-12-25T16:28:24.267Z,98050.98
2022-12-25T16:31:27.188Z,98053.27
2022-12-25T16:34:30.020Z,98048.48
2022-12-25T16:37:32.848Z,98052.05
2022-12-25T16:40:35.793Z,98052.85
2022-12-25T16:43:38.591Z,98045.95
2022-12-25T16:46:41.481Z,98040.89
2022-12-25T16:49:44.362Z,98031.30
2022-12-25T16:52:47.218Z,98023.07
2022-12-25T16:55:50.156Z,98013.82
2022-12-25T16:58:53.027Z,98015.65
2022-12-25T17:01:55.948Z,98026.32
2022-12-25T17:05:00.674Z,98031.29
2022-12-25T17:08:03.715Z,98022.36
2022-12-25T17:11:06.766Z,98011.64
2022-12-25T17:14:10.752Z,98008.52
2022-12-25T17:17:13.698Z,97991.52
2022-12-25T17:20:16.650Z,97986.20
2022-12-25T17:23:20.940Z,97982.98
2022-12-25T17:26:25.041Z,97983.84
2022-12-25T17:29:27.965Z,97991.77
2022-12-25T17:32:31.012Z,97997.34
2022-12-25T17:35:37.187Z,97992.54
2022-12-25T17:38:40.547Z,97980.38
2022-12-25T17:41:43.358Z,97974.45
2022-12-25T17:44:46.451Z,97979.66
2022-12-25T17:47:49.287Z,97989.02
2022-12-25T17:50:52.112Z,97987.94
2022-12-25T17:53:57.334Z,97989.20
2022-12-25T17:57:00.115Z,97990.48
2022-12-25T18:00:03.352Z,97991.38
2022-12-25T18:03:11.558Z,97992.27
2022-12-25T18:06:18.696Z,97996.05
2022-12-25T18:09:21.775Z,97994.65
2022-12-25T18:12:24.616Z,97996.56
2022-12-25T18:15:27.510Z,97985.55
2022-12-25T18:18:31.212Z,97980.86
2022-12-25T18:21:34.571Z,97972.86
2022-12-25T18:24:37.949Z,97969.79
2022-12-25T18:27:40.848Z,97955.23
2022-12-25T18:30:45.196Z,97944.23
2022-12-25T18:33:48.297Z,97934.72
2022-12-25T18:36:51.109Z,97934.71
2022-12-25T18:39:54.036Z,97934.89
2022-12-25T18:43:02.997Z,97935.83
2022-12-25T18:46:06.908Z,97928.33
2022-12-25T18:49:11.146Z,97929.36
2022-12-25T18:52:48.868Z,97935.79
2022-12-25T18:55:40.773Z,97941.02
2022-12-25T18:58:43.839Z,97944.07
2022-12-25T19:01:46.927Z,97944.58
2022-12-25T19:04:49.936Z,97946.02
2022-12-25T19:07:53.111Z,97932.83
2022-12-25T19:10:56.265Z,97922.63
2022-12-25T19:13:59.239Z,97915.48
2022-12-25T19:17:04.963Z,97919.45
2022-12-25T19:20:08.589Z,97916.50
2022-12-25T19:23:11.404Z,97915.24
2022-12-25T19:26:14.269Z,97917.77
2022-12-25T19:29:17.555Z,97924.36
2022-12-25T19:32:20.627Z,97919.24
2022-12-25T19:35:23.677Z,97911.80
2022-12-25T19:38:26.559Z,97909.88
2022-12-25T19:41:29.452Z,97899.04
2022-12-25T19:44:32.333Z,97892.94
2022-12-25T19:47:35.158Z,97882.30
2022-12-25T19:50:38.021Z,97872.89
2022-12-25T19:53:40.851Z,97873.05
2022-12-25T19:56:43.794Z,97876.41
2022-12-25T19:59:46.614Z,97885.36
2022-12-25T20:02:49.605Z,97891.71
2022-12-25T20:05:56.757Z,97887.97
2022-12-25T20:09:09.281Z,97875.21
2022-12-25T20:12:14.855Z,97881.56
2022-12-25T20:15:22.795Z,97883.89
2022-12-25T20:18:25.723Z,97881.04
2022-12-25T20:21:30.139Z,97859.30
2022-12-25T20:24:33.075Z,97845.81
2022-12-25T20:27:36.142Z,97829.70
2022-12-25T20:30:40.191Z,97823.02
2022-12-25T20:33:43.907Z,97825.11
2022-12-25T20:36:46.784Z,97813.87
2022-12-25T20:39:49.604Z,97801.95
2022-12-25T20:42:52.399Z,97800.38
2022-12-25T20:45:55.576Z,97795.08
2022-12-25T20:48:58.708Z,97789.77
2022-12-25T20:52:05.365Z,97798.11
2022-12-25T20:55:08.770Z,97810.02
2022-12-25T20:58:11.899Z,97810.25
2022-12-25T21:01:18.081Z,97804.61
2022-12-25T21:04:21.484Z,97794.95
2022-12-25T21:07:24.289Z,97794.43
2022-12-25T21:10:27.483Z,97791.46
2022-12-25T21:13:36.486Z,97780.45
2022-12-25T21:16:39.393Z,97775.09
2022-12-25T21:19:42.302Z,97775.86
2022-12-25T21:22:45.215Z,97767.52
2022-12-25T21:25:48.905Z,97753.09
2022-12-25T21:28:55.102Z,97762.00
2022-12-25T21:32:16.836Z,97769.64
2022-12-25T21:35:19.617Z,97778.95
2022-12-25T21:38:22.501Z,97778.09
2022-12-25T21:41:26.664Z,97771.30
2022-12-25T21:44:29.456Z,97759.03
2022-12-25T21:48:00.419Z,97764.70
2022-12-25T21:51:14.034Z,97770.30
2022-12-25T21:54:19.483Z,97773.05
2022-12-25T21:57:22.323Z,97761.93
2022-12-25T22:00:25.133Z,97759.23
2022-12-25T22:03:28.154Z,97754.52
2022-12-25T22:06:50.544Z,97757.33
2022-12-25T22:09:53.502Z,97769.33
2022-12-25T22:13:14.786Z,97773.23
2022-12-25T22:16:36.374Z,97767.30
2022-12-25T22:19:45.452Z,97754.37
2022-12-25T22:22:48.525Z,97754.44
2022-12-25T22:25:51.328Z,97751.63
2022-12-25T22:28:54.166Z,97749.90
2022-12-25T22:31:56.946Z,97741.55
2022-12-25T22:35:00.628Z,97732.91
2022-12-25T22:38:03.469Z,97727.13
2022-12-25T22:41:07.044Z,97720.00
2022-12-25T22:44:18.252Z,97717.55
2022-12-25T22:47:21.965Z,97701.50
2022-12-25T22:50:24.804Z,97713.86
2022-12-25T22:53:27.611Z,97741.00
2022-12-25T22:56:30.473Z,97751.31
2022-12-25T22:59:33.398Z,97726.16
2022-12-25T23:02:36.568Z,97726.14
2022-12-25T23:05:39.756Z,97734.77
2022-12-25T23:08:42.665Z,97723.73
2022-12-25T23:11:45.908Z,97721.40
2022-12-25T23:14:48.715Z,97710.86
2022-12-25T23:18:10.254Z,97708.30
2022-12-25T23:21:34.731Z,97704.42
2022-12-25T23:24:56.478Z,97714.80
2022-12-25T23:27:59.297Z,97726.93
2022-12-25T23:31:02.948Z,97712.14
2022-12-25T23:34:06.959Z,97707.11
2022-12-25T23:37:10.808Z,97712.71
2022-12-25T23:40:13.605Z,97708.02
2022-12-25T23:43:16.385Z,97700.45
2022-12-25T23:46:19.831Z,97690.04
2022-12-25T23:49:24.729Z,97698.31
2022-12-25T23:52:27.604Z,97695.75
2022-12-25T23:55:30.378Z,97694.29
2022-12-25T23:58:33.228Z,97693.96
